Terminal Aerodrome Forecast
Issued by NWS

Home | Current Version | Previous Version | Text Only | Print | Product List | Glossary On
Versions: 1 2 3 4 5 6 7 8 9 10 11 12 13 14 15 16 17 18
960
FTUS46 KEKA 222347
TAFUKI
TAF
KUKI 222347Z 2300/2324 31004KT P6SM BKN040
     FM230300 00000KT P6SM SCT050
     FM230800 00000KT 4SM BR SCT010
     FM231600 13004KT P6SM SCT250=

USA.gov is the U.S. government's official web portal to all federal, state and local government web resources and services.